NY/NJ Local METAR Reports

 

KNYC - NYC/Central Park, NY, USA
Distance from Hoboken: NE 4mi, 7km
Updated: 01/16/2019 6:51pm
Mostly cloudy
Mostly cloudy
 
Temperature: 39°F , 4°C
Dew Point: 19°F , -7°C
Humidity: 45%
Barometer: 30.12 inHg , 1020 hPa
Clouds: Mostly cloudy
Visibility: 10 miles , 16 km
Cloud details: Mostly cloudy 5500 ft
2019/01/16 23:51 KNYC 162351Z AUTO 10SM BKN055 04/M07 A3012 RMK AO2 SLP193 T00391067 10039 20022 53019 $
KEWR - Newark, NJ, USA
Distance from Hoboken: WSW 8mi, 13km
Updated: 01/16/2019 6:51pm
Mostly cloudy
Mostly cloudy
 Wind from WSW
Wind: WSW 12 mph , 19 km/h
Temperature: 37°F , 3°C
Wind Chill: 29°F , -2°C
Dew Point: 19°F , -7°C
Humidity: 48%
Barometer: 30.12 inHg , 1020 hPa
Clouds: Mostly cloudy
Visibility: 10 miles , 16 km
Cloud details: Mostly cloudy 5500 ft
2019/01/16 23:51 KEWR 162351Z 25010KT 10SM BKN055 03/M07 A3012 RMK AO2 SLP198 T00331067 10039 20028 53020
 
KLGA - NYC/La Guardia, NY, USA
Distance from Hoboken: ENE 8mi, 13km
Updated: 01/16/2019 6:51pm
Mostly cloudy
Mostly cloudy
 Wind from WSW
Wind: WSW 15 mph , 24 km/h, Gust: 25 mph , 41 km/h
Temperature: 39°F , 4°C
Wind Chill: 31°F , -1°C
Dew Point: 19°F , -7°C
Humidity: 45%
Barometer: 30.10 inHg , 1019.3 hPa
Clouds: Mostly cloudy
Visibility: 10 miles , 16 km
Cloud details: Mostly cloudy 5500 ft
2019/01/16 23:51 KLGA 162351Z 25013G22KT 10SM BKN055 04/M07 A3010 RMK AO2 SLP193 T00441067 10044 20028 53019
KTEB - Teterboro, NJ, USA
Distance from Hoboken: N 9mi, 14km
Updated: 01/16/2019 6:51pm
Partly cloudy
Partly cloudy
 Wind from W
Wind: W 9 mph , 15 km/h
Temperature: 39°F , 4°C
Wind Chill: 33°F , 1°C
Dew Point: 21°F , -6°C
Humidity: 48%
Barometer: 30.10 inHg , 1019.3 hPa
Clouds: Partly cloudy
Visibility: 10 miles , 16 km
Cloud details: Partly cloudy 5500 ft
2019/01/16 23:51 KTEB 162351Z 26008KT 180V280 10SM SCT055 04/M06 A3010 RMK AO2 SLP193 T00391056 10072 20028 53020
 
KJFK - NYC/Jfk Arpt, NY, USA
Distance from Hoboken: ESE 16mi, 25km
Updated: 01/16/2019 6:51pm
Mostly cloudy
Mostly cloudy
 Wind from W
Wind: W 15 mph , 24 km/h
Temperature: 37°F , 3°C
Wind Chill: 28°F , -2°C
Dew Point: 25°F , -4°C
Humidity: 60%
Barometer: 30.13 inHg , 1020.3 hPa
Clouds: Mostly cloudy
Visibility: 10 miles , 16 km
Cloud details: Mostly cloudy 5500 ft
2019/01/16 23:51 KJFK 162351Z 26013KT 10SM BKN055 03/M04 A3013 RMK AO2 SLP201 T00331044 10039 20022 51021
KCDW - Caldwell, NJ, USA
Distance from Hoboken: NW 16mi, 26km
Updated: 01/16/2019 6:53pm
Mostly cloudy
Mostly cloudy
 Wind from W
Wind: W 6 mph , 9 km/h
Temperature: 37°F , 3°C
Wind Chill: 32°F , 0°C
Dew Point: 21°F , -6°C
Humidity: 52%
Barometer: 30.12 inHg , 1020 hPa
Clouds: Mostly cloudy
Visibility: 10 miles , 16 km
Cloud details: Mostly cloudy 5500 ft
2019/01/16 23:53 KCDW 162353Z 26005KT 10SM BKN055 03/M06 A3012 RMK AO2 SLP205 T00281061 10033 20017 53019
 
KMMU - Morristown Muni, NJ, USA
Distance from Hoboken: W 20mi, 33km
Updated: 01/16/2019 6:45pm
Overcast
Overcast
 Wind from W
Wind: W 8 mph , 13 km/h
Temperature: 37°F , 3°C
Wind Chill: 31°F , -1°C
Dew Point: 23°F , -5°C
Humidity: 56%
Barometer: 30.12 inHg , 1020 hPa
Clouds: Overcast
Visibility: 10 miles , 16 km
Cloud details: Overcast 5000 ft
2019/01/16 23:45 KMMU 162345Z 27007KT 10SM OVC050 03/M05 A3012
KHPN - White Plains, NY, USA
Distance from Hoboken: NE 28mi, 46km
Updated: 01/16/2019 5:56pm
NOT Current
Mostly cloudy
Mostly cloudy
 Wind from WNW
Wind: WNW 5 mph , 7 km/h
Temperature: 37°F , 3°C
Wind Chill: 33°F , 1°C
Dew Point: 18°F , -8°C
Humidity: 45%
Barometer: 30.04 inHg , 1017.3 hPa
Clouds: Mostly cloudy
Visibility: 10 miles , 16 km
Cloud details: Mostly cloudy 5500 ft
2019/01/16 22:56 KHPN 162256Z 29004KT 10SM BKN055 03/M08 A3004
 
KFRG - Farmingdale, NY, USA
Distance from Hoboken: E 32mi, 52km
Updated: 01/16/2019 6:53pm
Mostly cloudy
Mostly cloudy
 Wind from varies
Wind: varies 6 mph , 9 km/h
Temperature: 36°F , 2°C
Wind Chill: 31°F , -1°C
Dew Point: 21°F , -6°C
Humidity: 56%
Barometer: 30.10 inHg , 1019.3 hPa
Clouds: Mostly cloudy
Visibility: 10 miles , 16 km
Cloud details: Mostly cloudy 5500 ft
2019/01/16 23:53 KFRG 162353Z VRB05KT 10SM BKN055 02/M06 A3010 RMK AO2 SLP194 T00221061 10033 20017 53020
KSMQ - Somerville, NJ, USA
Distance from Hoboken: WSW 34mi, 55km
Updated: 01/16/2019 6:53pm
Overcast
Overcast
 Wind from varies
Wind: varies 3 mph , 6 km/h
Temperature: 37°F , 3°C
Dew Point: 21°F , -6°C
Humidity: 52%
Barometer: 30.12 inHg , 1020 hPa
Clouds: Overcast
Visibility: 10 miles , 16 km
Cloud details: Overcast 5500 ft
2019/01/16 23:53 KSMQ 162353Z AUTO VRB03KT 10SM OVC055 03/M06 A3012 RMK AO2 SLP202 T00281061 10039 20022 53021
 
KBLM - Belmar/Farmdale, NJ, USA
Distance from Hoboken: S 40mi, 64km
Updated: 01/16/2019 6:56pm
Mostly cloudy
Mostly cloudy
 Wind from WSW
Wind: WSW 9 mph , 15 km/h
Temperature: 36°F , 2°C
Wind Chill: 29°F , -2°C
Dew Point: 25°F , -4°C
Humidity: 65%
Barometer: 30.15 inHg , 1021 hPa
Clouds: Mostly cloudy
Visibility: 10 miles , 16 km
Cloud details: Mostly cloudy 4500 ft
2019/01/16 23:56 KBLM 162356Z AUTO 24008KT 10SM BKN045 02/M04 A3015 RMK AO2 SLP215 T00171044 10028 20017 51024 FZRANO
K12N - Andover, NJ, USA
Distance from Hoboken: WNW 41mi, 67km
Updated: 01/16/2019 6:54pm

 Wind from calm
Wind: Calm
Temperature: 36°F , 2°C
Dew Point: 19°F , -7°C
Humidity: 52%
Barometer: 30.10 inHg , 1019.3 hPa
2019/01/16 23:54 K12N 162354Z AUTO 00000KT 02/M07 A3010 RMK AO1 SLP204 T00171067 10033 20017 53020
 
KFWN - Sussex, NJ, USA
Distance from Hoboken: NW 45mi, 72km
Updated: 01/16/2019 6:53pm
Mostly cloudy
Mostly cloudy
 Wind from varies
Wind: varies 7 mph , 11 km/h
Temperature: 37°F , 3°C
Wind Chill: 32°F , 0°C
Dew Point: 21°F , -6°C
Humidity: 52%
Barometer: 30.09 inHg , 1019 hPa
Clouds: Mostly cloudy
Visibility: 10 miles , 16 km
Cloud details: Mostly cloudy 6000 ft
2019/01/16 23:53 KFWN 162353Z AUTO VRB06KT 10SM BKN060 03/M06 A3009 RMK AO2 SLP194 T00281061 10033 20022 53023
KISP - Islip, NY, USA
Distance from Hoboken: E 49mi, 79km
Updated: 01/16/2019 6:56pm
Mostly cloudy
Mostly cloudy
 Wind from SW
Wind: SW 7 mph , 11 km/h
Temperature: 32°F , 0°C
Wind Chill: 25°F , -4°C
Dew Point: 21°F , -6°C
Humidity: 64%
Barometer: 30.09 inHg , 1019 hPa
Clouds: Mostly cloudy
Visibility: 10 miles , 16 km
Cloud details: Mostly cloudy 5500 ft
2019/01/16 23:56 KISP 162356Z 23006KT 10SM BKN055 00/M06 A3009 RMK AO2 SLP189 T00001056 10039 21006 53018